DRK4000 VQPR-VNKT
Flight info
| Callsign | DRK4000 |
|---|---|
| Flight time | 0h 46m |
| Altitude | 34000 |
| Route | PRO G348 KIMTI |
| Aircraft | A319/M-SDE3FGHIRWY/LB1 |
Departure
| Time | 2026-04-28 16:10 |
|---|---|
| Airport | Paro International Airport (VQPR) |
Arrival
| Time | 2026-04-28 16:56 |
|---|---|
| Airport | Tribhuvan International Airport (VNKT) |
| Time | Latitude | Longitude | Altitude | Speed | Heading |
|---|---|---|---|---|---|
| 2026-04-28 15:42 | 27.40535 | 89.42162 | 7353 ft | 0 kts | 240° |
| 2026-04-28 16:01 | 27.40544 | 89.42180 | 7355 ft | 1 kts | 240° |
| 2026-04-28 16:02 | 27.40553 | 89.42205 | 7356 ft | 4 kts | 279° |
| 2026-04-28 16:02 | 27.40541 | 89.42229 | 7355 ft | 3 kts | 328° |
| 2026-04-28 16:02 | 27.40538 | 89.42231 | 7354 ft | 1 kts | 330° |
| 2026-04-28 16:05 | 27.40544 | 89.42227 | 7355 ft | 5 kts | 330° |
| 2026-04-28 16:05 | 27.40580 | 89.42204 | 7354 ft | 6 kts | 330° |
| 2026-04-28 16:06 | 27.40610 | 89.42185 | 7355 ft | 5 kts | 330° |
| 2026-04-28 16:06 | 27.40643 | 89.42164 | 7356 ft | 8 kts | 330° |
| 2026-04-28 16:06 | 27.40716 | 89.42118 | 7358 ft | 14 kts | 330° |
| 2026-04-28 16:06 | 27.40800 | 89.42073 | 7361 ft | 12 kts | 359° |
| 2026-04-28 16:07 | 27.40850 | 89.42132 | 7363 ft | 9 kts | 40° |
| 2026-04-28 16:07 | 27.40894 | 89.42108 | 7365 ft | 10 kts | 330° |
| 2026-04-28 16:07 | 27.41046 | 89.42012 | 7368 ft | 12 kts | 330° |
| 2026-04-28 16:08 | 27.41120 | 89.41966 | 7370 ft | 12 kts | 330° |
| 2026-04-28 16:08 | 27.41178 | 89.41906 | 7372 ft | 11 kts | 311° |
| 2026-04-28 16:08 | 27.41205 | 89.41908 | 7373 ft | 3 kts | 104° |
| 2026-04-28 16:09 | 27.41001 | 89.42042 | 7367 ft | 63 kts | 150° |
| 2026-04-28 16:09 | 27.40401 | 89.42422 | 7346 ft | 132 kts | 150° |
| 2026-04-28 16:09 | 27.39448 | 89.43012 | 7531 ft | 166 kts | 153° |
| 2026-04-28 16:10 | 27.38155 | 89.44991 | 8873 ft | 169 kts | 101° |
| 2026-04-28 16:10 | 27.37686 | 89.46200 | 9480 ft | 173 kts | 135° |
| 2026-04-28 16:10 | 27.35742 | 89.47654 | 10919 ft | 167 kts | 149° |
| 2026-04-28 16:11 | 27.34097 | 89.49464 | 12106 ft | 172 kts | 117° |
| 2026-04-28 16:11 | 27.32566 | 89.51554 | 12892 ft | 193 kts | 163° |
| 2026-04-28 16:12 | 27.30002 | 89.50484 | 13458 ft | 228 kts | 230° |
| 2026-04-28 16:12 | 27.29099 | 89.48897 | 13735 ft | 255 kts | 240° |
| 2026-04-28 16:13 | 27.27287 | 89.45072 | 14698 ft | 298 kts | 242° |
| 2026-04-28 16:13 | 27.26272 | 89.42936 | 15037 ft | 322 kts | 242° |
| 2026-04-28 16:13 | 27.23973 | 89.38196 | 15704 ft | 364 kts | 241° |
| 2026-04-28 16:14 | 27.21470 | 89.33123 | 17102 ft | 376 kts | 240° |
| 2026-04-28 16:14 | 27.18893 | 89.27940 | 18572 ft | 384 kts | 240° |
| 2026-04-28 16:15 | 27.16276 | 89.22672 | 19956 ft | 393 kts | 240° |
| 2026-04-28 16:15 | 27.14938 | 89.19975 | 20627 ft | 397 kts | 240° |
| 2026-04-28 16:15 | 27.13586 | 89.17257 | 21294 ft | 401 kts | 240° |
| 2026-04-28 16:16 | 27.10843 | 89.11731 | 22540 ft | 409 kts | 241° |
| 2026-04-28 16:16 | 27.09459 | 89.08942 | 23128 ft | 412 kts | 240° |
| 2026-04-28 16:17 | 27.06636 | 89.03268 | 24264 ft | 419 kts | 240° |
| 2026-04-28 16:17 | 27.05206 | 89.00409 | 24798 ft | 423 kts | 240° |
| 2026-04-28 16:17 | 27.03758 | 88.97516 | 25316 ft | 426 kts | 240° |
| 2026-04-28 16:17 | 27.02298 | 88.94600 | 25837 ft | 430 kts | 240° |
| 2026-04-28 16:18 | 27.00831 | 88.91672 | 26337 ft | 433 kts | 240° |
| 2026-04-28 16:18 | 26.99349 | 88.88705 | 26820 ft | 437 kts | 240° |
| 2026-04-28 16:18 | 26.97856 | 88.85726 | 27290 ft | 440 kts | 240° |
| 2026-04-28 16:18 | 26.96326 | 88.82789 | 27748 ft | 443 kts | 239° |
| 2026-04-28 16:19 | 26.94731 | 88.79843 | 28193 ft | 446 kts | 238° |
| 2026-04-28 16:19 | 26.93088 | 88.76870 | 28628 ft | 449 kts | 238° |
| 2026-04-28 16:19 | 26.91429 | 88.73880 | 29045 ft | 452 kts | 238° |
| 2026-04-28 16:19 | 26.89763 | 88.70874 | 29448 ft | 455 kts | 238° |
| 2026-04-28 16:20 | 26.88102 | 88.67857 | 29834 ft | 458 kts | 238° |
| 2026-04-28 16:20 | 26.86434 | 88.64806 | 30226 ft | 460 kts | 238° |
| 2026-04-28 16:20 | 26.84757 | 88.61725 | 30598 ft | 463 kts | 238° |
| 2026-04-28 16:20 | 26.83079 | 88.58640 | 30974 ft | 465 kts | 238° |
| 2026-04-28 16:21 | 26.81395 | 88.55546 | 31496 ft | 463 kts | 238° |
| 2026-04-28 16:21 | 26.79741 | 88.52510 | 32002 ft | 462 kts | 238° |
| 2026-04-28 16:21 | 26.78068 | 88.49446 | 32492 ft | 461 kts | 238° |
| 2026-04-28 16:21 | 26.76412 | 88.46424 | 32961 ft | 460 kts | 238° |
| 2026-04-28 16:22 | 26.74714 | 88.43334 | 33448 ft | 459 kts | 238° |
| 2026-04-28 16:22 | 26.73087 | 88.40269 | 33866 ft | 459 kts | 243° |
| 2026-04-28 16:22 | 26.71936 | 88.36944 | 33986 ft | 458 kts | 256° |
| 2026-04-28 16:22 | 26.71468 | 88.33439 | 34012 ft | 455 kts | 268° |
| 2026-04-28 16:23 | 26.71671 | 88.29926 | 34009 ft | 454 kts | 280° |
| 2026-04-28 16:23 | 26.72512 | 88.26523 | 34006 ft | 454 kts | 291° |
| 2026-04-28 16:23 | 26.75600 | 88.20379 | 34009 ft | 454 kts | 301° |
| 2026-04-28 16:24 | 26.78931 | 88.14359 | 34010 ft | 454 kts | 302° |
| 2026-04-28 16:24 | 26.82301 | 88.08374 | 34009 ft | 454 kts | 302° |
| 2026-04-28 16:25 | 26.85650 | 88.02434 | 34006 ft | 454 kts | 302° |
| 2026-04-28 16:25 | 26.89024 | 87.96419 | 34001 ft | 454 kts | 302° |
| 2026-04-28 16:26 | 26.92350 | 87.90463 | 33996 ft | 454 kts | 302° |
| 2026-04-28 16:26 | 26.95695 | 87.84463 | 33994 ft | 454 kts | 302° |
| 2026-04-28 16:27 | 26.99039 | 87.78465 | 33994 ft | 454 kts | 301° |
| 2026-04-28 16:28 | 27.04052 | 87.69454 | 33997 ft | 454 kts | 301° |
| 2026-04-28 16:28 | 27.07397 | 87.63438 | 33999 ft | 454 kts | 301° |
| 2026-04-28 16:29 | 27.11843 | 87.55427 | 34001 ft | 454 kts | 301° |
| 2026-04-28 16:30 | 27.16842 | 87.46385 | 34003 ft | 454 kts | 301° |
| 2026-04-28 16:30 | 27.20170 | 87.40361 | 34001 ft | 454 kts | 301° |
| 2026-04-28 16:31 | 27.23501 | 87.34324 | 34002 ft | 454 kts | 301° |
| 2026-04-28 16:31 | 27.26822 | 87.28289 | 34002 ft | 454 kts | 301° |
| 2026-04-28 16:32 | 27.30134 | 87.22245 | 34004 ft | 454 kts | 300° |
| 2026-04-28 16:32 | 27.32410 | 87.15651 | 34005 ft | 453 kts | 282° |
| 2026-04-28 16:32 | 27.33087 | 87.12195 | 34004 ft | 453 kts | 282° |
| 2026-04-28 16:33 | 27.34222 | 87.06444 | 34004 ft | 453 kts | 282° |
| 2026-04-28 16:33 | 27.35819 | 86.98352 | 34003 ft | 453 kts | 282° |
| 2026-04-28 16:34 | 27.37180 | 86.91424 | 34003 ft | 453 kts | 282° |
| 2026-04-28 16:34 | 27.38533 | 86.84501 | 34003 ft | 453 kts | 282° |
| 2026-04-28 16:35 | 27.39881 | 86.77573 | 34002 ft | 453 kts | 282° |
| 2026-04-28 16:35 | 27.41224 | 86.70646 | 34002 ft | 453 kts | 282° |
| 2026-04-28 16:36 | 27.42568 | 86.63714 | 34002 ft | 453 kts | 282° |
| 2026-04-28 16:36 | 27.43912 | 86.56781 | 34002 ft | 453 kts | 282° |
| 2026-04-28 16:37 | 27.45255 | 86.49843 | 34003 ft | 453 kts | 282° |
| 2026-04-28 16:38 | 27.47257 | 86.39445 | 34003 ft | 453 kts | 282° |
| 2026-04-28 16:38 | 27.48431 | 86.32476 | 34001 ft | 453 kts | 274° |
| 2026-04-28 16:38 | 27.48398 | 86.28937 | 33997 ft | 452 kts | 263° |
| 2026-04-28 16:39 | 27.47815 | 86.25473 | 33999 ft | 451 kts | 253° |
| 2026-04-28 16:39 | 27.45119 | 86.19178 | 33996 ft | 450 kts | 236° |
| 2026-04-28 16:40 | 27.41607 | 86.13334 | 33993 ft | 451 kts | 236° |
| 2026-04-28 16:40 | 27.38097 | 86.07476 | 33994 ft | 451 kts | 236° |
| 2026-04-28 16:41 | 27.34583 | 86.01623 | 33989 ft | 452 kts | 236° |
| 2026-04-28 16:41 | 27.31048 | 85.95753 | 33982 ft | 454 kts | 236° |
| 2026-04-28 16:42 | 27.27498 | 85.89861 | 33984 ft | 455 kts | 236° |
| 2026-04-28 16:42 | 27.23953 | 85.83981 | 33785 ft | 453 kts | 236° |
| 2026-04-28 16:42 | 27.22179 | 85.81051 | 33222 ft | 453 kts | 236° |
| 2026-04-28 16:43 | 27.20404 | 85.78123 | 32647 ft | 453 kts | 236° |
| 2026-04-28 16:43 | 27.18625 | 85.75189 | 32071 ft | 454 kts | 236° |
| 2026-04-28 16:43 | 27.16849 | 85.72258 | 31497 ft | 455 kts | 236° |
| 2026-04-28 16:43 | 27.15063 | 85.69309 | 30920 ft | 456 kts | 236° |
| 2026-04-28 16:44 | 27.13422 | 85.66263 | 30335 ft | 457 kts | 244° |
| 2026-04-28 16:44 | 27.12300 | 85.62923 | 29694 ft | 458 kts | 255° |
| 2026-04-28 16:44 | 27.11779 | 85.59390 | 29032 ft | 457 kts | 266° |
| 2026-04-28 16:44 | 27.11755 | 85.55876 | 28323 ft | 455 kts | 270° |
| 2026-04-28 16:45 | 27.11772 | 85.52340 | 27565 ft | 452 kts | 270° |
| 2026-04-28 16:45 | 27.11780 | 85.48848 | 26804 ft | 444 kts | 270° |
| 2026-04-28 16:45 | 27.11782 | 85.45403 | 25948 ft | 437 kts | 270° |
| 2026-04-28 16:45 | 27.11780 | 85.42019 | 25074 ft | 431 kts | 270° |
| 2026-04-28 16:46 | 27.11779 | 85.38673 | 24194 ft | 424 kts | 270° |
| 2026-04-28 16:46 | 27.11777 | 85.35401 | 23319 ft | 417 kts | 270° |
| 2026-04-28 16:46 | 27.11775 | 85.32160 | 22441 ft | 411 kts | 270° |
| 2026-04-28 16:46 | 27.12036 | 85.28997 | 21564 ft | 407 kts | 282° |
| 2026-04-28 16:47 | 27.12907 | 85.25990 | 20685 ft | 403 kts | 294° |
| 2026-04-28 16:47 | 27.14295 | 85.23271 | 19809 ft | 400 kts | 306° |
| 2026-04-28 16:47 | 27.16113 | 85.20936 | 18931 ft | 397 kts | 317° |
| 2026-04-28 16:47 | 27.18298 | 85.19072 | 18158 ft | 391 kts | 329° |
| 2026-04-28 16:48 | 27.20729 | 85.17766 | 17406 ft | 384 kts | 340° |
| 2026-04-28 16:48 | 27.23303 | 85.17051 | 16653 ft | 378 kts | 352° |
| 2026-04-28 16:48 | 27.25911 | 85.16934 | 15895 ft | 372 kts | 4° |
| 2026-04-28 16:48 | 27.28434 | 85.17375 | 15152 ft | 367 kts | 14° |
| 2026-04-28 16:49 | 27.30834 | 85.18327 | 14394 ft | 361 kts | 22° |
| 2026-04-28 16:49 | 27.33110 | 85.19376 | 13617 ft | 357 kts | 22° |
| 2026-04-28 16:49 | 27.35402 | 85.20420 | 12786 ft | 354 kts | 22° |
| 2026-04-28 16:49 | 27.37664 | 85.21444 | 12182 ft | 345 kts | 21° |
| 2026-04-28 16:50 | 27.39848 | 85.22431 | 11866 ft | 328 kts | 21° |
| 2026-04-28 16:50 | 27.41922 | 85.23369 | 11502 ft | 316 kts | 21° |
| 2026-04-28 16:50 | 27.43929 | 85.24271 | 11129 ft | 305 kts | 21° |
| 2026-04-28 16:50 | 27.45859 | 85.25133 | 10741 ft | 290 kts | 21° |
| 2026-04-28 16:51 | 27.47672 | 85.25941 | 10355 ft | 270 kts | 21° |
| 2026-04-28 16:51 | 27.49362 | 85.26701 | 9979 ft | 254 kts | 21° |
| 2026-04-28 16:51 | 27.50959 | 85.27425 | 9541 ft | 243 kts | 21° |
| 2026-04-28 16:51 | 27.52499 | 85.28118 | 9113 ft | 234 kts | 21° |
| 2026-04-28 16:52 | 27.53950 | 85.28767 | 8928 ft | 212 kts | 21° |
| 2026-04-28 16:52 | 27.55264 | 85.29360 | 8696 ft | 200 kts | 21° |
| 2026-04-28 16:52 | 27.56560 | 85.29946 | 8128 ft | 200 kts | 21° |
| 2026-04-28 16:52 | 27.57808 | 85.30512 | 7621 ft | 188 kts | 21° |
| 2026-04-28 16:53 | 27.58990 | 85.31050 | 7156 ft | 178 kts | 21° |
| 2026-04-28 16:53 | 27.60120 | 85.31565 | 6689 ft | 173 kts | 21° |
| 2026-04-28 16:53 | 27.61228 | 85.32069 | 6194 ft | 171 kts | 21° |
| 2026-04-28 16:53 | 27.62318 | 85.32565 | 5769 ft | 166 kts | 21° |
| 2026-04-28 16:54 | 27.63353 | 85.33036 | 5509 ft | 154 kts | 21° |
| 2026-04-28 16:54 | 27.64315 | 85.33474 | 5306 ft | 146 kts | 21° |
| 2026-04-28 16:54 | 27.65252 | 85.33901 | 5087 ft | 143 kts | 22° |
| 2026-04-28 16:54 | 27.65858 | 85.34187 | 4942 ft | 142 kts | 22° |
| 2026-04-28 16:55 | 27.67079 | 85.34746 | 4669 ft | 141 kts | 21° |
| 2026-04-28 16:55 | 27.67977 | 85.35152 | 4463 ft | 141 kts | 21° |
| 2026-04-28 16:55 | 27.68882 | 85.35564 | 4354 ft | 133 kts | 22° |
| 2026-04-28 16:55 | 27.69590 | 85.35882 | 4389 ft | 84 kts | 22° |
| 2026-04-28 16:56 | 27.69976 | 85.36059 | 4399 ft | 43 kts | 22° |
| 2026-04-28 16:56 | 27.70112 | 85.36120 | 4403 ft | 9 kts | 15° |
| 2026-04-28 16:56 | 27.70172 | 85.36110 | 4404 ft | 9 kts | 346° |
| 2026-04-28 16:56 | 27.70198 | 85.36060 | 4404 ft | 10 kts | 250° |
| 2026-04-28 16:57 | 27.70137 | 85.36013 | 4401 ft | 10 kts | 201° |
| 2026-04-28 16:57 | 27.70056 | 85.35977 | 4398 ft | 14 kts | 204° |
| 2026-04-28 16:57 | 27.69958 | 85.35932 | 4397 ft | 14 kts | 201° |
| 2026-04-28 16:57 | 27.69913 | 85.35881 | 4393 ft | 11 kts | 284° |
| 2026-04-28 16:58 | 27.69932 | 85.35825 | 4389 ft | 1 kts | 292° |
| 2026-04-28 16:58 | 27.69938 | 85.35810 | 4388 ft | 0 kts | 292° |